sensor_id;sensor_type;location;lat;lon;timestamp;P1;durP1;ratioP1;P2;durP2;ratioP2
2940;SDS011;1480;51.456;6.670;2023-02-15T00:01:06;29.97;;;20.37;;
2940;SDS011;1480;51.456;6.670;2023-02-15T00:03:33;30.50;;;20.40;;
2940;SDS011;1480;51.456;6.670;2023-02-15T00:06:00;30.77;;;20.37;;
2940;SDS011;1480;51.456;6.670;2023-02-15T00:08:29;27.37;;;20.80;;
2940;SDS011;1480;51.456;6.670;2023-02-15T00:11:03;27.80;;;19.10;;
2940;SDS011;1480;51.456;6.670;2023-02-15T00:13:31;31.93;;;22.17;;
2940;SDS011;1480;51.456;6.670;2023-02-15T00:16:00;31.03;;;22.40;;
2940;SDS011;1480;51.456;6.670;2023-02-15T00:18:28;30.80;;;20.23;;
2940;SDS011;1480;51.456;6.670;2023-02-15T00:20:55;31.13;;;21.17;;
2940;SDS011;1480;51.456;6.670;2023-02-15T00:23:22;29.47;;;21.60;;
2940;SDS011;1480;51.456;6.670;2023-02-15T00:25:50;31.07;;;20.50;;
2940;SDS011;1480;51.456;6.670;2023-02-15T00:28:17;29.67;;;22.00;;
2940;SDS011;1480;51.456;6.670;2023-02-15T00:30:44;28.90;;;19.40;;
2940;SDS011;1480;51.456;6.670;2023-02-15T00:33:11;29.43;;;20.40;;
2940;SDS011;1480;51.456;6.670;2023-02-15T00:35:39;30.40;;;22.60;;
2940;SDS011;1480;51.456;6.670;2023-02-15T00:38:06;32.23;;;21.57;;
2940;SDS011;1480;51.456;6.670;2023-02-15T00:40:33;38.63;;;22.43;;
2940;SDS011;1480;51.456;6.670;2023-02-15T00:43:01;34.27;;;20.47;;
2940;SDS011;1480;51.456;6.670;2023-02-15T00:45:28;30.97;;;21.53;;
2940;SDS011;1480;51.456;6.670;2023-02-15T00:47:55;31.80;;;21.30;;
2940;SDS011;1480;51.456;6.670;2023-02-15T00:50:23;31.03;;;21.33;;
2940;SDS011;1480;51.456;6.670;2023-02-15T00:52:50;32.43;;;20.83;;
2940;SDS011;1480;51.456;6.670;2023-02-15T00:55:16;32.00;;;23.10;;
2940;SDS011;1480;51.456;6.670;2023-02-15T00:57:43;29.10;;;19.97;;
2940;SDS011;1480;51.456;6.670;2023-02-15T01:00:15;31.53;;;20.90;;
2940;SDS011;1480;51.456;6.670;2023-02-15T01:02:42;36.83;;;22.40;;
2940;SDS011;1480;51.456;6.670;2023-02-15T01:05:09;32.20;;;21.50;;
2940;SDS011;1480;51.456;6.670;2023-02-15T01:07:36;35.43;;;22.27;;
2940;SDS011;1480;51.456;6.670;2023-02-15T01:10:03;37.50;;;22.37;;
2940;SDS011;1480;51.456;6.670;2023-02-15T01:12:31;33.90;;;22.53;;
2940;SDS011;1480;51.456;6.670;2023-02-15T01:14:58;32.23;;;21.07;;
2940;SDS011;1480;51.456;6.670;2023-02-15T01:17:27;32.83;;;21.43;;
2940;SDS011;1480;51.456;6.670;2023-02-15T01:19:54;29.60;;;19.70;;
2940;SDS011;1480;51.456;6.670;2023-02-15T01:22:21;30.67;;;22.80;;
2940;SDS011;1480;51.456;6.670;2023-02-15T01:24:48;39.90;;;24.37;;
2940;SDS011;1480;51.456;6.670;2023-02-15T01:27:15;29.77;;;19.87;;
2940;SDS011;1480;51.456;6.670;2023-02-15T01:29:43;35.10;;;24.70;;
2940;SDS011;1480;51.456;6.670;2023-02-15T01:32:10;34.27;;;22.63;;
2940;SDS011;1480;51.456;6.670;2023-02-15T01:34:38;27.37;;;19.30;;
2940;SDS011;1480;51.456;6.670;2023-02-15T01:37:05;36.07;;;23.73;;
2940;SDS011;1480;51.456;6.670;2023-02-15T01:39:33;33.43;;;21.17;;
2940;SDS011;1480;51.456;6.670;2023-02-15T01:42:00;33.67;;;19.97;;
2940;SDS011;1480;51.456;6.670;2023-02-15T01:44:47;38.70;;;24.53;;
2940;SDS011;1480;51.456;6.670;2023-02-15T01:47:19;33.57;;;22.10;;
2940;SDS011;1480;51.456;6.670;2023-02-15T01:49:51;40.70;;;23.93;;
2940;SDS011;1480;51.456;6.670;2023-02-15T01:52:26;37.33;;;24.83;;
2940;SDS011;1480;51.456;6.670;2023-02-15T01:54:53;33.03;;;20.83;;
2940;SDS011;1480;51.456;6.670;2023-02-15T01:57:21;36.70;;;24.90;;
2940;SDS011;1480;51.456;6.670;2023-02-15T01:59:52;34.40;;;21.40;;
2940;SDS011;1480;51.456;6.670;2023-02-15T02:02:25;37.07;;;23.20;;
2940;SDS011;1480;51.456;6.670;2023-02-15T02:04:56;39.43;;;23.60;;
2940;SDS011;1480;51.456;6.670;2023-02-15T02:07:30;34.27;;;23.17;;
2940;SDS011;1480;51.456;6.670;2023-02-15T02:09:59;37.70;;;23.40;;
2940;SDS011;1480;51.456;6.670;2023-02-15T02:12:32;33.20;;;23.07;;
2940;SDS011;1480;51.456;6.670;2023-02-15T02:15:02;33.30;;;23.00;;
2940;SDS011;1480;51.456;6.670;2023-02-15T02:17:31;38.77;;;24.90;;
2940;SDS011;1480;51.456;6.670;2023-02-15T02:20:21;31.07;;;22.13;;
2940;SDS011;1480;51.456;6.670;2023-02-15T02:23:12;35.43;;;22.87;;
2940;SDS011;1480;51.456;6.670;2023-02-15T02:31:52;34.37;;;22.90;;
2940;SDS011;1480;51.456;6.670;2023-02-15T02:34:36;36.37;;;23.63;;
2940;SDS011;1480;51.456;6.670;2023-02-15T02:37:11;33.17;;;22.40;;
2940;SDS011;1480;51.456;6.670;2023-02-15T02:39:47;34.20;;;23.67;;
2940;SDS011;1480;51.456;6.670;2023-02-15T02:42:23;35.83;;;23.27;;
2940;SDS011;1480;51.456;6.670;2023-02-15T02:44:56;38.20;;;25.67;;
2940;SDS011;1480;51.456;6.670;2023-02-15T02:47:29;38.17;;;24.37;;
2940;SDS011;1480;51.456;6.670;2023-02-15T02:50:04;38.07;;;24.27;;
2940;SDS011;1480;51.456;6.670;2023-02-15T02:52:35;35.10;;;22.90;;
2940;SDS011;1480;51.456;6.670;2023-02-15T02:55:05;38.63;;;26.03;;
2940;SDS011;1480;51.456;6.670;2023-02-15T02:57:34;42.97;;;25.17;;
2940;SDS011;1480;51.456;6.670;2023-02-15T03:00:05;35.33;;;24.00;;
2940;SDS011;1480;51.456;6.670;2023-02-15T03:02:35;35.90;;;23.33;;
2940;SDS011;1480;51.456;6.670;2023-02-15T03:05:09;39.03;;;23.70;;
2940;SDS011;1480;51.456;6.670;2023-02-15T03:07:40;37.73;;;24.37;;
2940;SDS011;1480;51.456;6.670;2023-02-15T03:10:09;35.93;;;23.87;;
2940;SDS011;1480;51.456;6.670;2023-02-15T03:12:37;38.70;;;23.67;;
2940;SDS011;1480;51.456;6.670;2023-02-15T03:15:08;37.70;;;23.60;;
2940;SDS011;1480;51.456;6.670;2023-02-15T03:17:37;38.10;;;24.60;;
2940;SDS011;1480;51.456;6.670;2023-02-15T03:20:14;38.37;;;25.50;;
2940;SDS011;1480;51.456;6.670;2023-02-15T03:22:44;32.87;;;22.87;;
2940;SDS011;1480;51.456;6.670;2023-02-15T03:25:16;37.33;;;23.87;;
2940;SDS011;1480;51.456;6.670;2023-02-15T03:27:48;39.30;;;24.47;;
2940;SDS011;1480;51.456;6.670;2023-02-15T03:30:20;36.90;;;23.07;;
2940;SDS011;1480;51.456;6.670;2023-02-15T03:32:48;38.10;;;24.87;;
2940;SDS011;1480;51.456;6.670;2023-02-15T03:35:19;36.87;;;24.93;;
2940;SDS011;1480;51.456;6.670;2023-02-15T03:37:50;41.47;;;26.00;;
2940;SDS011;1480;51.456;6.670;2023-02-15T03:40:22;39.17;;;24.30;;
2940;SDS011;1480;51.456;6.670;2023-02-15T03:43:10;38.60;;;24.30;;
2940;SDS011;1480;51.456;6.670;2023-02-15T03:45:44;38.13;;;24.87;;
2940;SDS011;1480;51.456;6.670;2023-02-15T03:48:21;36.37;;;24.30;;
2940;SDS011;1480;51.456;6.670;2023-02-15T03:50:53;39.00;;;25.40;;
2940;SDS011;1480;51.456;6.670;2023-02-15T03:53:46;40.80;;;24.67;;
2940;SDS011;1480;51.456;6.670;2023-02-15T03:56:14;36.03;;;23.67;;
2940;SDS011;1480;51.456;6.670;2023-02-15T03:58:41;37.20;;;24.17;;
2940;SDS011;1480;51.456;6.670;2023-02-15T04:01:26;37.70;;;25.40;;
2940;SDS011;1480;51.456;6.670;2023-02-15T04:04:36;38.13;;;22.27;;
2940;SDS011;1480;51.456;6.670;2023-02-15T04:07:05;35.73;;;24.30;;
2940;SDS011;1480;51.456;6.670;2023-02-15T04:09:33;38.50;;;24.50;;
2940;SDS011;1480;51.456;6.670;2023-02-15T04:12:17;36.83;;;23.30;;
2940;SDS011;1480;51.456;6.670;2023-02-15T04:14:44;37.13;;;25.00;;
2940;SDS011;1480;51.456;6.670;2023-02-15T04:17:28;37.47;;;25.13;;
2940;SDS011;1480;51.456;6.670;2023-02-15T04:19:57;41.93;;;25.17;;
2940;SDS011;1480;51.456;6.670;2023-02-15T04:22:41;39.03;;;25.30;;
2940;SDS011;1480;51.456;6.670;2023-02-15T04:25:26;38.60;;;25.10;;
2940;SDS011;1480;51.456;6.670;2023-02-15T04:27:53;46.50;;;26.57;;
2940;SDS011;1480;51.456;6.670;2023-02-15T04:30:21;34.70;;;22.80;;
2940;SDS011;1480;51.456;6.670;2023-02-15T04:32:50;36.07;;;22.40;;
2940;SDS011;1480;51.456;6.670;2023-02-15T04:35:18;35.30;;;24.97;;
2940;SDS011;1480;51.456;6.670;2023-02-15T04:37:45;40.80;;;27.60;;
2940;SDS011;1480;51.456;6.670;2023-02-15T04:40:13;42.33;;;25.43;;
2940;SDS011;1480;51.456;6.670;2023-02-15T04:42:40;33.40;;;21.00;;
2940;SDS011;1480;51.456;6.670;2023-02-15T04:45:07;35.73;;;25.57;;
2940;SDS011;1480;51.456;6.670;2023-02-15T04:47:34;37.40;;;25.30;;
2940;SDS011;1480;51.456;6.670;2023-02-15T04:50:02;37.53;;;25.07;;
2940;SDS011;1480;51.456;6.670;2023-02-15T04:52:30;31.80;;;21.70;;
2940;SDS011;1480;51.456;6.670;2023-02-15T04:54:57;38.13;;;26.20;;
2940;SDS011;1480;51.456;6.670;2023-02-15T04:57:24;35.83;;;24.40;;
2940;SDS011;1480;51.456;6.670;2023-02-15T04:59:51;35.67;;;23.50;;
2940;SDS011;1480;51.456;6.670;2023-02-15T05:02:18;38.10;;;24.00;;
2940;SDS011;1480;51.456;6.670;2023-02-15T05:04:45;39.27;;;25.80;;
2940;SDS011;1480;51.456;6.670;2023-02-15T05:07:12;37.67;;;24.07;;
2940;SDS011;1480;51.456;6.670;2023-02-15T05:09:41;46.80;;;25.90;;
2940;SDS011;1480;51.456;6.670;2023-02-15T05:12:08;35.63;;;25.00;;
2940;SDS011;1480;51.456;6.670;2023-02-15T05:14:35;39.87;;;26.20;;
2940;SDS011;1480;51.456;6.670;2023-02-15T05:17:01;39.13;;;24.60;;
2940;SDS011;1480;51.456;6.670;2023-02-15T05:19:30;38.33;;;24.07;;
2940;SDS011;1480;51.456;6.670;2023-02-15T05:21:57;39.50;;;24.67;;
2940;SDS011;1480;51.456;6.670;2023-02-15T05:24:24;39.70;;;24.13;;
2940;SDS011;1480;51.456;6.670;2023-02-15T05:27:21;37.73;;;24.10;;
2940;SDS011;1480;51.456;6.670;2023-02-15T05:30:06;42.87;;;26.23;;
2940;SDS011;1480;51.456;6.670;2023-02-15T05:32:36;40.07;;;24.90;;
2940;SDS011;1480;51.456;6.670;2023-02-15T05:35:03;44.03;;;26.43;;
2940;SDS011;1480;51.456;6.670;2023-02-15T05:37:31;40.53;;;25.60;;
2940;SDS011;1480;51.456;6.670;2023-02-15T05:39:57;37.60;;;24.83;;
2940;SDS011;1480;51.456;6.670;2023-02-15T05:42:26;40.50;;;26.03;;
2940;SDS011;1480;51.456;6.670;2023-02-15T05:44:53;37.07;;;25.83;;
2940;SDS011;1480;51.456;6.670;2023-02-15T05:47:19;38.00;;;25.87;;
2940;SDS011;1480;51.456;6.670;2023-02-15T05:49:46;32.97;;;24.50;;
2940;SDS011;1480;51.456;6.670;2023-02-15T05:52:16;39.17;;;25.93;;
2940;SDS011;1480;51.456;6.670;2023-02-15T05:54:43;49.50;;;26.20;;
2940;SDS011;1480;51.456;6.670;2023-02-15T05:57:10;43.20;;;24.47;;
2940;SDS011;1480;51.456;6.670;2023-02-15T05:59:38;45.50;;;26.13;;
2940;SDS011;1480;51.456;6.670;2023-02-15T06:02:05;39.23;;;25.50;;
2940;SDS011;1480;51.456;6.670;2023-02-15T06:04:32;37.27;;;23.83;;
2940;SDS011;1480;51.456;6.670;2023-02-15T06:06:59;38.30;;;26.00;;
2940;SDS011;1480;51.456;6.670;2023-02-15T06:09:26;43.20;;;24.97;;
2940;SDS011;1480;51.456;6.670;2023-02-15T06:11:53;46.27;;;27.60;;
2940;SDS011;1480;51.456;6.670;2023-02-15T06:14:20;34.60;;;23.00;;
2940;SDS011;1480;51.456;6.670;2023-02-15T06:16:48;42.77;;;26.60;;
2940;SDS011;1480;51.456;6.670;2023-02-15T06:19:15;42.63;;;27.47;;
2940;SDS011;1480;51.456;6.670;2023-02-15T06:21:42;45.87;;;26.07;;
2940;SDS011;1480;51.456;6.670;2023-02-15T06:24:09;43.60;;;26.57;;
2940;SDS011;1480;51.456;6.670;2023-02-15T06:26:36;36.63;;;24.00;;
2940;SDS011;1480;51.456;6.670;2023-02-15T06:29:03;40.13;;;25.73;;
2940;SDS011;1480;51.456;6.670;2023-02-15T06:31:30;39.53;;;26.57;;
2940;SDS011;1480;51.456;6.670;2023-02-15T06:33:58;40.83;;;25.03;;
2940;SDS011;1480;51.456;6.670;2023-02-15T06:36:27;39.13;;;23.17;;
2940;SDS011;1480;51.456;6.670;2023-02-15T06:38:54;42.00;;;27.80;;
2940;SDS011;1480;51.456;6.670;2023-02-15T06:41:21;46.43;;;24.73;;
2940;SDS011;1480;51.456;6.670;2023-02-15T06:43:48;44.40;;;26.37;;
2940;SDS011;1480;51.456;6.670;2023-02-15T06:46:15;43.93;;;25.50;;
2940;SDS011;1480;51.456;6.670;2023-02-15T06:48:42;43.50;;;25.60;;
2940;SDS011;1480;51.456;6.670;2023-02-15T06:51:10;41.40;;;25.50;;
2940;SDS011;1480;51.456;6.670;2023-02-15T06:53:37;36.27;;;23.60;;
2940;SDS011;1480;51.456;6.670;2023-02-15T06:56:07;37.83;;;24.00;;
2940;SDS011;1480;51.456;6.670;2023-02-15T06:58:34;38.70;;;23.57;;
2940;SDS011;1480;51.456;6.670;2023-02-15T07:01:01;36.17;;;23.37;;
2940;SDS011;1480;51.456;6.670;2023-02-15T07:03:29;36.93;;;24.83;;
2940;SDS011;1480;51.456;6.670;2023-02-15T07:05:56;37.97;;;23.73;;
2940;SDS011;1480;51.456;6.670;2023-02-15T07:08:26;38.67;;;23.60;;
2940;SDS011;1480;51.456;6.670;2023-02-15T07:10:54;42.23;;;25.47;;
2940;SDS011;1480;51.456;6.670;2023-02-15T07:13:42;35.50;;;23.80;;
2940;SDS011;1480;51.456;6.670;2023-02-15T07:16:08;38.20;;;23.90;;
2940;SDS011;1480;51.456;6.670;2023-02-15T07:18:35;37.83;;;24.10;;
2940;SDS011;1480;51.456;6.670;2023-02-15T07:21:02;39.47;;;25.77;;
2940;SDS011;1480;51.456;6.670;2023-02-15T07:23:31;32.83;;;22.77;;
2940;SDS011;1480;51.456;6.670;2023-02-15T07:25:58;35.50;;;22.43;;
2940;SDS011;1480;51.456;6.670;2023-02-15T07:28:25;35.80;;;22.40;;
2940;SDS011;1480;51.456;6.670;2023-02-15T07:30:52;38.00;;;22.30;;
2940;SDS011;1480;51.456;6.670;2023-02-15T07:33:19;40.13;;;24.00;;
2940;SDS011;1480;51.456;6.670;2023-02-15T07:35:49;39.37;;;22.43;;
2940;SDS011;1480;51.456;6.670;2023-02-15T07:38:17;39.03;;;25.43;;
2940;SDS011;1480;51.456;6.670;2023-02-15T07:40:45;38.20;;;23.23;;
2940;SDS011;1480;51.456;6.670;2023-02-15T07:43:13;41.83;;;24.73;;
2940;SDS011;1480;51.456;6.670;2023-02-15T07:45:40;37.00;;;24.80;;
2940;SDS011;1480;51.456;6.670;2023-02-15T07:48:07;39.53;;;23.20;;
2940;SDS011;1480;51.456;6.670;2023-02-15T07:50:34;34.60;;;23.87;;
2940;SDS011;1480;51.456;6.670;2023-02-15T07:53:01;36.57;;;21.23;;
2940;SDS011;1480;51.456;6.670;2023-02-15T07:55:29;36.90;;;23.27;;
2940;SDS011;1480;51.456;6.670;2023-02-15T07:57:57;36.13;;;23.47;;
2940;SDS011;1480;51.456;6.670;2023-02-15T08:00:24;45.90;;;24.70;;
2940;SDS011;1480;51.456;6.670;2023-02-15T08:02:52;39.80;;;24.17;;
2940;SDS011;1480;51.456;6.670;2023-02-15T08:05:34;39.17;;;24.80;;
2940;SDS011;1480;51.456;6.670;2023-02-15T08:08:01;36.80;;;22.80;;
2940;SDS011;1480;51.456;6.670;2023-02-15T08:10:27;36.10;;;22.63;;
2940;SDS011;1480;51.456;6.670;2023-02-15T08:13:10;37.60;;;23.60;;
2940;SDS011;1480;51.456;6.670;2023-02-15T08:15:36;33.00;;;22.17;;
2940;SDS011;1480;51.456;6.670;2023-02-15T08:18:03;42.43;;;21.93;;
2940;SDS011;1480;51.456;6.670;2023-02-15T08:20:30;38.07;;;24.50;;
2940;SDS011;1480;51.456;6.670;2023-02-15T08:22:57;39.47;;;25.90;;
2940;SDS011;1480;51.456;6.670;2023-02-15T08:25:25;37.60;;;21.73;;
2940;SDS011;1480;51.456;6.670;2023-02-15T08:27:52;34.17;;;23.33;;
2940;SDS011;1480;51.456;6.670;2023-02-15T08:30:20;36.60;;;23.27;;
2940;SDS011;1480;51.456;6.670;2023-02-15T08:32:47;37.50;;;22.70;;
2940;SDS011;1480;51.456;6.670;2023-02-15T08:35:14;32.30;;;21.87;;
2940;SDS011;1480;51.456;6.670;2023-02-15T08:37:42;35.03;;;23.10;;
2940;SDS011;1480;51.456;6.670;2023-02-15T08:40:10;36.33;;;22.23;;
2940;SDS011;1480;51.456;6.670;2023-02-15T08:42:39;41.27;;;23.10;;
2940;SDS011;1480;51.456;6.670;2023-02-15T08:45:06;33.17;;;20.83;;
2940;SDS011;1480;51.456;6.670;2023-02-15T08:47:35;40.93;;;21.77;;
2940;SDS011;1480;51.456;6.670;2023-02-15T08:50:02;39.07;;;21.73;;
2940;SDS011;1480;51.456;6.670;2023-02-15T08:52:30;29.53;;;18.70;;
2940;SDS011;1480;51.456;6.670;2023-02-15T08:54:57;30.43;;;20.37;;
2940;SDS011;1480;51.456;6.670;2023-02-15T08:57:24;35.93;;;22.80;;
2940;SDS011;1480;51.456;6.670;2023-02-15T08:59:51;33.63;;;23.47;;
2940;SDS011;1480;51.456;6.670;2023-02-15T09:02:20;36.47;;;23.20;;
2940;SDS011;1480;51.456;6.670;2023-02-15T09:04:48;41.27;;;22.10;;
2940;SDS011;1480;51.456;6.670;2023-02-15T09:07:16;37.90;;;24.33;;
2940;SDS011;1480;51.456;6.670;2023-02-15T09:09:44;32.03;;;21.73;;
2940;SDS011;1480;51.456;6.670;2023-02-15T09:12:12;36.30;;;23.00;;
2940;SDS011;1480;51.456;6.670;2023-02-15T09:14:39;38.47;;;21.87;;
2940;SDS011;1480;51.456;6.670;2023-02-15T09:17:06;32.03;;;21.30;;
2940;SDS011;1480;51.456;6.670;2023-02-15T09:19:32;25.77;;;18.60;;
2940;SDS011;1480;51.456;6.670;2023-02-15T09:22:01;34.90;;;20.80;;
2940;SDS011;1480;51.456;6.670;2023-02-15T09:24:31;29.33;;;20.00;;
2940;SDS011;1480;51.456;6.670;2023-02-15T09:26:58;30.27;;;20.27;;
2940;SDS011;1480;51.456;6.670;2023-02-15T09:29:25;33.43;;;20.50;;
2940;SDS011;1480;51.456;6.670;2023-02-15T09:31:52;31.73;;;20.43;;
2940;SDS011;1480;51.456;6.670;2023-02-15T09:34:20;34.53;;;23.10;;
2940;SDS011;1480;51.456;6.670;2023-02-15T09:36:48;29.37;;;20.40;;
2940;SDS011;1480;51.456;6.670;2023-02-15T09:39:18;33.30;;;21.23;;
2940;SDS011;1480;51.456;6.670;2023-02-15T09:41:50;37.10;;;20.73;;
2940;SDS011;1480;51.456;6.670;2023-02-15T09:44:35;32.20;;;21.73;;
2940;SDS011;1480;51.456;6.670;2023-02-15T09:47:22;27.60;;;20.77;;
2940;SDS011;1480;51.456;6.670;2023-02-15T09:50:10;29.07;;;19.17;;
2940;SDS011;1480;51.456;6.670;2023-02-15T09:52:46;26.50;;;19.77;;
2940;SDS011;1480;51.456;6.670;2023-02-15T09:55:32;30.63;;;19.40;;
2940;SDS011;1480;51.456;6.670;2023-02-15T09:58:09;48.80;;;26.23;;
2940;SDS011;1480;51.456;6.670;2023-02-15T10:00:44;45.57;;;25.93;;
2940;SDS011;1480;51.456;6.670;2023-02-15T10:03:19;42.53;;;25.50;;
2940;SDS011;1480;51.456;6.670;2023-02-15T10:06:03;33.43;;;21.70;;
2940;SDS011;1480;51.456;6.670;2023-02-15T10:08:48;27.27;;;18.20;;
2940;SDS011;1480;51.456;6.670;2023-02-15T10:11:31;24.27;;;16.70;;
2940;SDS011;1480;51.456;6.670;2023-02-15T10:14:11;21.80;;;16.20;;
2940;SDS011;1480;51.456;6.670;2023-02-15T10:16:49;25.77;;;18.80;;
2940;SDS011;1480;51.456;6.670;2023-02-15T10:19:23;28.30;;;18.63;;
2940;SDS011;1480;51.456;6.670;2023-02-15T10:21:59;30.77;;;20.17;;
2940;SDS011;1480;51.456;6.670;2023-02-15T10:24:43;26.90;;;16.30;;
2940;SDS011;1480;51.456;6.670;2023-02-15T10:27:22;24.27;;;16.63;;
2940;SDS011;1480;51.456;6.670;2023-02-15T10:29:51;25.93;;;20.10;;
2940;SDS011;1480;51.456;6.670;2023-02-15T10:32:28;27.60;;;17.13;;
2940;SDS011;1480;51.456;6.670;2023-02-15T10:35:00;24.60;;;17.33;;
2940;SDS011;1480;51.456;6.670;2023-02-15T10:37:46;23.23;;;17.70;;
2940;SDS011;1480;51.456;6.670;2023-02-15T10:40:22;23.23;;;15.17;;
2940;SDS011;1480;51.456;6.670;2023-02-15T10:43:03;22.93;;;16.27;;
2940;SDS011;1480;51.456;6.670;2023-02-15T10:45:41;24.47;;;16.50;;
2940;SDS011;1480;51.456;6.670;2023-02-15T10:51:21;23.90;;;15.83;;
2940;SDS011;1480;51.456;6.670;2023-02-15T10:54:00;24.77;;;16.77;;
2940;SDS011;1480;51.456;6.670;2023-02-15T10:56:36;23.43;;;16.70;;
2940;SDS011;1480;51.456;6.670;2023-02-15T10:59:18;25.63;;;17.50;;
2940;SDS011;1480;51.456;6.670;2023-02-15T11:01:59;23.63;;;17.67;;
2940;SDS011;1480;51.456;6.670;2023-02-15T11:04:39;25.67;;;17.40;;
2940;SDS011;1480;51.456;6.670;2023-02-15T11:07:16;21.97;;;17.97;;
2940;SDS011;1480;51.456;6.670;2023-02-15T11:09:47;23.83;;;16.63;;
2940;SDS011;1480;51.456;6.670;2023-02-15T11:12:19;23.20;;;17.37;;
2940;SDS011;1480;51.456;6.670;2023-02-15T11:14:51;25.07;;;17.33;;
2940;SDS011;1480;51.456;6.670;2023-02-15T11:17:24;26.83;;;15.70;;
2940;SDS011;1480;51.456;6.670;2023-02-15T11:19:56;24.30;;;16.60;;
2940;SDS011;1480;51.456;6.670;2023-02-15T11:22:28;23.70;;;16.90;;
2940;SDS011;1480;51.456;6.670;2023-02-15T11:24:56;23.00;;;16.27;;
2940;SDS011;1480;51.456;6.670;2023-02-15T11:27:25;21.60;;;16.33;;
2940;SDS011;1480;51.456;6.670;2023-02-15T11:29:59;25.93;;;15.50;;
2940;SDS011;1480;51.456;6.670;2023-02-15T11:32:30;20.77;;;14.70;;
2940;SDS011;1480;51.456;6.670;2023-02-15T11:35:00;25.30;;;16.20;;
2940;SDS011;1480;51.456;6.670;2023-02-15T11:37:32;20.90;;;15.03;;
2940;SDS011;1480;51.456;6.670;2023-02-15T11:40:03;25.50;;;16.40;;
2940;SDS011;1480;51.456;6.670;2023-02-15T11:42:47;20.80;;;15.63;;
2940;SDS011;1480;51.456;6.670;2023-02-15T11:45:20;20.47;;;14.47;;
2940;SDS011;1480;51.456;6.670;2023-02-15T11:47:51;20.87;;;15.10;;
2940;SDS011;1480;51.456;6.670;2023-02-15T11:50:20;24.50;;;16.47;;
2940;SDS011;1480;51.456;6.670;2023-02-15T11:52:49;22.63;;;16.60;;
2940;SDS011;1480;51.456;6.670;2023-02-15T11:55:20;23.60;;;15.33;;
2940;SDS011;1480;51.456;6.670;2023-02-15T11:57:50;25.90;;;15.97;;
2940;SDS011;1480;51.456;6.670;2023-02-15T12:00:25;24.40;;;16.30;;
2940;SDS011;1480;51.456;6.670;2023-02-15T12:03:02;20.53;;;14.57;;
2940;SDS011;1480;51.456;6.670;2023-02-15T12:05:36;23.70;;;15.77;;
2940;SDS011;1480;51.456;6.670;2023-02-15T12:08:10;19.70;;;15.17;;
2940;SDS011;1480;51.456;6.670;2023-02-15T12:10:43;26.40;;;15.40;;
2940;SDS011;1480;51.456;6.670;2023-02-15T12:13:20;23.70;;;14.10;;
2940;SDS011;1480;51.456;6.670;2023-02-15T12:15:49;22.70;;;16.07;;
2940;SDS011;1480;51.456;6.670;2023-02-15T12:18:19;25.00;;;14.77;;
2940;SDS011;1480;51.456;6.670;2023-02-15T12:20:52;26.70;;;17.67;;
2940;SDS011;1480;51.456;6.670;2023-02-15T12:23:25;25.03;;;14.77;;
2940;SDS011;1480;51.456;6.670;2023-02-15T12:25:55;24.00;;;15.73;;
2940;SDS011;1480;51.456;6.670;2023-02-15T12:28:25;23.10;;;16.53;;
2940;SDS011;1480;51.456;6.670;2023-02-15T12:30:57;29.20;;;18.20;;
2940;SDS011;1480;51.456;6.670;2023-02-15T12:33:27;24.10;;;17.47;;
2940;SDS011;1480;51.456;6.670;2023-02-15T12:35:57;25.90;;;18.83;;
2940;SDS011;1480;51.456;6.670;2023-02-15T12:38:27;22.53;;;16.20;;
2940;SDS011;1480;51.456;6.670;2023-02-15T12:40:59;24.30;;;17.00;;
2940;SDS011;1480;51.456;6.670;2023-02-15T12:43:27;25.80;;;17.53;;
2940;SDS011;1480;51.456;6.670;2023-02-15T12:46:14;27.50;;;17.87;;
2940;SDS011;1480;51.456;6.670;2023-02-15T12:48:52;30.30;;;16.90;;
2940;SDS011;1480;51.456;6.670;2023-02-15T12:51:42;28.80;;;20.07;;
2940;SDS011;1480;51.456;6.670;2023-02-15T12:54:17;26.93;;;19.70;;
2940;SDS011;1480;51.456;6.670;2023-02-15T12:56:54;30.10;;;20.30;;
2940;SDS011;1480;51.456;6.670;2023-02-15T12:59:22;29.27;;;20.17;;
2940;SDS011;1480;51.456;6.670;2023-02-15T13:01:50;28.60;;;19.70;;
2940;SDS011;1480;51.456;6.670;2023-02-15T13:04:21;27.20;;;18.00;;
2940;SDS011;1480;51.456;6.670;2023-02-15T13:06:51;27.90;;;18.30;;
2940;SDS011;1480;51.456;6.670;2023-02-15T13:09:20;21.10;;;16.03;;
2940;SDS011;1480;51.456;6.670;2023-02-15T13:11:55;21.67;;;14.50;;
2940;SDS011;1480;51.456;6.670;2023-02-15T13:14:25;23.00;;;15.43;;
2940;SDS011;1480;51.456;6.670;2023-02-15T13:17:00;21.67;;;14.83;;
2940;SDS011;1480;51.456;6.670;2023-02-15T13:19:29;23.60;;;14.93;;
2940;SDS011;1480;51.456;6.670;2023-02-15T13:22:02;22.90;;;15.07;;
2940;SDS011;1480;51.456;6.670;2023-02-15T13:24:33;22.97;;;15.03;;
2940;SDS011;1480;51.456;6.670;2023-02-15T13:27:04;22.30;;;15.67;;
2940;SDS011;1480;51.456;6.670;2023-02-15T13:29:33;30.33;;;18.37;;
2940;SDS011;1480;51.456;6.670;2023-02-15T13:32:06;22.53;;;14.87;;
2940;SDS011;1480;51.456;6.670;2023-02-15T13:34:38;26.10;;;16.07;;
2940;SDS011;1480;51.456;6.670;2023-02-15T13:37:08;23.13;;;14.70;;
2940;SDS011;1480;51.456;6.670;2023-02-15T13:39:40;24.27;;;14.90;;
2940;SDS011;1480;51.456;6.670;2023-02-15T13:42:14;27.60;;;15.30;;
2940;SDS011;1480;51.456;6.670;2023-02-15T13:44:53;21.53;;;15.40;;
2940;SDS011;1480;51.456;6.670;2023-02-15T13:47:32;22.07;;;14.00;;
2940;SDS011;1480;51.456;6.670;2023-02-15T13:50:06;25.10;;;15.07;;
2940;SDS011;1480;51.456;6.670;2023-02-15T13:52:46;19.40;;;14.80;;
2940;SDS011;1480;51.456;6.670;2023-02-15T13:55:26;25.30;;;14.70;;
2940;SDS011;1480;51.456;6.670;2023-02-15T13:58:02;22.90;;;16.10;;
2940;SDS011;1480;51.456;6.670;2023-02-15T14:00:43;20.17;;;14.10;;
2940;SDS011;1480;51.456;6.670;2023-02-15T14:06:25;21.97;;;14.67;;
2940;SDS011;1480;51.456;6.670;2023-02-15T14:09:06;24.10;;;15.77;;
2940;SDS011;1480;51.456;6.670;2023-02-15T14:11:41;23.67;;;15.07;;
2940;SDS011;1480;51.456;6.670;2023-02-15T14:14:29;23.60;;;15.90;;
2940;SDS011;1480;51.456;6.670;2023-02-15T14:17:14;20.33;;;15.17;;
2940;SDS011;1480;51.456;6.670;2023-02-15T14:19:51;19.17;;;14.60;;
2940;SDS011;1480;51.456;6.670;2023-02-15T14:22:24;23.83;;;15.43;;
2940;SDS011;1480;51.456;6.670;2023-02-15T14:24:59;26.80;;;15.60;;
2940;SDS011;1480;51.456;6.670;2023-02-15T14:27:41;23.90;;;16.67;;
2940;SDS011;1480;51.456;6.670;2023-02-15T14:30:15;27.00;;;17.33;;
2940;SDS011;1480;51.456;6.670;2023-02-15T14:32:47;24.27;;;17.30;;
2940;SDS011;1480;51.456;6.670;2023-02-15T14:35:19;22.30;;;15.07;;
2940;SDS011;1480;51.456;6.670;2023-02-15T14:37:50;22.40;;;15.70;;
2940;SDS011;1480;51.456;6.670;2023-02-15T14:40:28;23.83;;;15.13;;
2940;SDS011;1480;51.456;6.670;2023-02-15T14:43:19;27.43;;;15.80;;
2940;SDS011;1480;51.456;6.670;2023-02-15T14:45:58;24.10;;;14.17;;
2940;SDS011;1480;51.456;6.670;2023-02-15T14:48:33;19.30;;;13.60;;
2940;SDS011;1480;51.456;6.670;2023-02-15T14:51:07;27.20;;;15.07;;
2940;SDS011;1480;51.456;6.670;2023-02-15T14:53:37;16.27;;;12.77;;
2940;SDS011;1480;51.456;6.670;2023-02-15T14:56:17;22.60;;;13.93;;
2940;SDS011;1480;51.456;6.670;2023-02-15T14:58:56;24.50;;;15.63;;
2940;SDS011;1480;51.456;6.670;2023-02-15T15:01:26;21.47;;;15.33;;
2940;SDS011;1480;51.456;6.670;2023-02-15T15:03:57;23.57;;;15.90;;
2940;SDS011;1480;51.456;6.670;2023-02-15T15:06:27;20.53;;;14.33;;
2940;SDS011;1480;51.456;6.670;2023-02-15T15:08:58;20.97;;;15.60;;
2940;SDS011;1480;51.456;6.670;2023-02-15T15:11:37;21.50;;;14.37;;
2940;SDS011;1480;51.456;6.670;2023-02-15T15:14:07;22.63;;;15.00;;
2940;SDS011;1480;51.456;6.670;2023-02-15T15:16:47;20.10;;;13.97;;
2940;SDS011;1480;51.456;6.670;2023-02-15T15:22:37;19.50;;;14.40;;
2940;SDS011;1480;51.456;6.670;2023-02-15T15:25:08;19.07;;;14.73;;
2940;SDS011;1480;51.456;6.670;2023-02-15T15:27:46;20.30;;;14.50;;
2940;SDS011;1480;51.456;6.670;2023-02-15T15:33:24;20.37;;;13.70;;